createdAt,value
2022-11-24T00:03:17.026Z,0.16
2022-11-24T00:08:20.846Z,0.16
2022-11-24T00:13:24.464Z,0.23
2022-11-24T00:18:28.184Z,0.32
2022-11-24T00:23:31.802Z,0.33
2022-11-24T00:28:36.554Z,0.28
2022-11-24T00:33:39.855Z,0.31
2022-11-24T00:38:43.886Z,0.27
2022-11-24T00:43:47.296Z,0.16
2022-11-24T00:48:50.923Z,0.11
2022-11-24T00:53:55.744Z,0.10
2022-11-24T00:58:59.286Z,0.10
2022-11-24T01:04:02.894Z,0.10
2022-11-24T01:09:06.410Z,0.12
2022-11-24T01:14:09.925Z,0.18
2022-11-24T01:19:13.341Z,0.19
2022-11-24T01:24:17.060Z,0.24
2022-11-24T01:29:20.473Z,0.33
2022-11-24T01:34:24.095Z,0.36
2022-11-24T01:39:27.707Z,0.42
2022-11-24T01:44:32.105Z,0.49
2022-11-24T01:49:41.199Z,0.43
2022-11-24T01:54:55.560Z,0.41
2022-11-24T02:00:04.936Z,0.45
2022-11-24T02:05:17.340Z,0.49
2022-11-24T02:10:22.080Z,0.45
2022-11-24T02:15:26.007Z,0.45
2022-11-24T02:20:29.429Z,0.43
2022-11-24T02:25:35.904Z,0.41
2022-11-24T02:30:39.774Z,0.45
2022-11-24T02:35:43.762Z,0.53
2022-11-24T02:40:49.533Z,0.54
2022-11-24T02:45:53.036Z,0.54
2022-11-24T02:50:56.659Z,0.46
2022-11-24T02:56:00.172Z,0.40
2022-11-24T03:01:05.029Z,0.38
2022-11-24T03:06:08.650Z,0.41
2022-11-24T03:11:12.570Z,0.39
2022-11-24T03:16:16.181Z,0.33
2022-11-24T03:21:20.643Z,0.39
2022-11-24T03:26:26.048Z,0.42
2022-11-24T03:31:29.528Z,0.38
2022-11-24T03:36:33.116Z,0.43
2022-11-24T03:41:36.831Z,0.53
2022-11-24T03:46:40.385Z,0.60
2022-11-24T03:51:44.171Z,0.60
2022-11-24T03:56:47.995Z,0.56
2022-11-24T04:01:51.789Z,0.44
2022-11-24T04:06:55.329Z,0.44
2022-11-24T04:12:17.689Z,0.48
2022-11-24T04:17:21.204Z,0.48
2022-11-24T04:22:24.822Z,0.42
2022-11-24T04:27:28.951Z,0.42
2022-11-24T04:32:32.774Z,0.41
2022-11-24T04:37:36.290Z,0.36
2022-11-24T04:42:40.012Z,0.33
2022-11-24T04:47:43.424Z,0.31
2022-11-24T04:52:47.148Z,0.25
2022-11-24T04:57:50.865Z,0.30
2022-11-24T05:02:54.481Z,0.37
2022-11-24T05:08:00.956Z,0.32
2022-11-24T05:13:13.610Z,0.30
2022-11-24T05:18:17.514Z,0.33
2022-11-24T05:23:21.029Z,0.37
2022-11-24T05:28:26.579Z,0.40
2022-11-24T05:33:33.661Z,0.39
2022-11-24T05:38:37.208Z,0.41
2022-11-24T05:43:40.621Z,0.41
2022-11-24T05:48:44.136Z,0.42
2022-11-24T05:53:47.549Z,0.46
2022-11-24T05:58:51.064Z,0.57
2022-11-24T06:03:54.579Z,0.70
2022-11-24T06:08:57.993Z,0.69
2022-11-24T06:14:01.611Z,0.74
2022-11-24T06:19:07.992Z,0.77
2022-11-24T06:24:11.718Z,0.78
2022-11-24T06:29:15.336Z,0.75
2022-11-24T06:34:19.258Z,0.75
2022-11-24T06:39:22.876Z,0.70
2022-11-24T06:44:26.697Z,0.71
2022-11-24T06:49:30.213Z,0.71
2022-11-24T06:54:34.671Z,0.77
2022-11-24T06:59:38.167Z,0.82
2022-11-24T07:04:41.683Z,0.91
2022-11-24T07:09:45.299Z,0.98
2022-11-24T07:14:48.922Z,1.07
2022-11-24T07:19:53.048Z,1.19
2022-11-24T07:24:56.460Z,1.34
2022-11-24T07:29:59.974Z,1.38
2022-11-24T07:35:04.108Z,1.36
2022-11-24T07:40:08.441Z,1.40
2022-11-24T07:45:11.855Z,1.43
2022-11-24T07:50:15.473Z,1.51
2022-11-24T07:55:19.089Z,1.62
2022-11-24T08:00:22.712Z,1.75
2022-11-24T08:05:26.329Z,1.80
2022-11-24T08:10:30.284Z,1.90
2022-11-24T08:15:33.666Z,2.03
2022-11-24T08:20:37.179Z,2.15
2022-11-24T08:25:40.695Z,2.20
2022-11-24T08:30:44.312Z,2.16
2022-11-24T08:35:47.829Z,2.17
2022-11-24T08:40:51.446Z,2.14
2022-11-24T08:45:54.997Z,2.12
2022-11-24T08:50:59.604Z,2.08
2022-11-24T08:56:04.030Z,2.09
2022-11-24T09:01:10.975Z,2.11
2022-11-24T09:06:15.064Z,2.15
2022-11-24T09:11:19.716Z,2.23
2022-11-24T09:16:26.382Z,2.34
2022-11-24T09:21:31.146Z,2.43
2022-11-24T09:26:37.320Z,2.44
2022-11-24T09:31:40.936Z,2.54
2022-11-24T09:36:44.352Z,2.52
2022-11-24T09:42:06.813Z,2.52
2022-11-24T09:47:16.571Z,2.62
2022-11-24T09:52:32.888Z,2.66
2022-11-24T09:57:41.527Z,2.73
2022-11-24T10:02:48.352Z,2.85
2022-11-24T10:08:06.885Z,3.04
2022-11-24T10:13:53.716Z,3.14
2022-11-24T10:19:37.721Z,3.14
2022-11-24T10:25:20.105Z,2.98
2022-11-24T10:30:26.591Z,2.82
2022-11-24T10:35:57.347Z,2.62
2022-11-24T10:41:06.501Z,2.71
2022-11-24T10:46:20.069Z,2.88
2022-11-24T10:51:58.404Z,2.86
2022-11-24T10:57:02.506Z,2.85
2022-11-24T11:02:36.206Z,2.90
2022-11-24T11:07:39.967Z,2.81
2022-11-24T11:12:44.979Z,2.64
2022-11-24T11:17:52.663Z,2.37
2022-11-24T11:22:58.452Z,2.27
2022-11-24T11:28:40.721Z,2.22
2022-11-24T11:34:08.065Z,2.40
2022-11-24T11:39:36.280Z,2.34
2022-11-24T11:44:49.211Z,2.34
2022-11-24T11:49:53.238Z,2.29
2022-11-24T11:55:27.476Z,2.24
2022-11-24T12:00:35.701Z,2.24
2022-11-24T12:06:01.027Z,2.11
2022-11-24T12:11:32.194Z,2.15
2022-11-24T12:16:49.838Z,2.19
2022-11-24T12:22:14.456Z,2.07
2022-11-24T12:27:55.442Z,2.01
2022-11-24T12:33:17.492Z,2.00
2022-11-24T12:38:55.934Z,1.91
2022-11-24T12:44:01.283Z,1.88
2022-11-24T12:49:21.798Z,1.97
2022-11-24T12:54:32.890Z,2.00
2022-11-24T13:00:01.965Z,2.12
2022-11-24T13:05:39.621Z,2.26
2022-11-24T13:10:58.825Z,2.21
2022-11-24T13:21:51.971Z,2.25
2022-11-24T13:27:20.008Z,2.27
2022-11-24T13:32:23.420Z,2.26
2022-11-24T13:37:34.221Z,2.23
2022-11-24T13:43:03.530Z,2.17
2022-11-24T13:48:19.221Z,2.17
2022-11-24T13:59:35.586Z,2.06
2022-11-24T14:04:44.435Z,2.08
2022-11-24T14:09:52.148Z,1.92
2022-11-24T14:15:21.052Z,1.69
2022-11-24T14:20:27.128Z,1.50
2022-11-24T14:25:32.261Z,1.27
2022-11-24T14:30:35.592Z,1.08
2022-11-24T14:35:44.755Z,1.07
2022-11-24T14:40:54.075Z,1.03
2022-11-24T14:46:09.646Z,0.93
2022-11-24T14:51:22.217Z,0.67
2022-11-24T14:56:27.573Z,0.45
2022-11-24T15:01:34.944Z,0.43
2022-11-24T15:06:40.802Z,0.43
2022-11-24T15:11:44.369Z,0.47
2022-11-24T15:16:48.037Z,0.55
2022-11-24T15:21:51.807Z,0.58
2022-11-24T15:27:01.781Z,0.66
2022-11-24T15:32:15.547Z,0.75
2022-11-24T15:37:18.840Z,0.84
2022-11-24T15:42:22.356Z,0.94
2022-11-24T15:47:25.769Z,1.06
2022-11-24T15:52:29.286Z,0.89
2022-11-24T15:57:35.770Z,0.73
2022-11-24T16:02:45.126Z,0.70
2022-11-24T16:07:48.822Z,0.74
2022-11-24T16:12:52.564Z,0.78
2022-11-24T16:17:55.979Z,0.78
2022-11-24T16:22:59.441Z,0.80
2022-11-24T16:28:03.015Z,0.72
2022-11-24T16:33:07.136Z,0.51
2022-11-24T16:38:24.579Z,0.47
2022-11-24T16:43:29.222Z,0.37
2022-11-24T16:48:38.780Z,0.37
2022-11-24T16:53:43.026Z,0.30
2022-11-24T16:58:46.527Z,0.27
2022-11-24T17:03:50.043Z,0.40
2022-11-24T17:08:55.915Z,0.60
2022-11-24T17:13:59.326Z,0.79
2022-11-24T17:19:03.249Z,0.93
2022-11-24T17:24:07.477Z,0.96
2022-11-24T17:29:11.304Z,0.90
2022-11-24T17:34:14.722Z,0.96
2022-11-24T17:39:23.240Z,1.08
2022-11-24T17:44:28.508Z,1.19
2022-11-24T17:49:31.818Z,1.28
2022-11-24T17:54:50.495Z,1.36
2022-11-24T17:59:53.901Z,1.43
2022-11-24T18:04:57.316Z,1.51
2022-11-24T18:10:01.048Z,1.55
2022-11-24T18:15:04.937Z,1.49
2022-11-24T18:20:10.944Z,1.58
2022-11-24T18:25:14.449Z,1.51
2022-11-24T18:30:18.493Z,1.38
2022-11-24T18:35:21.889Z,1.30
2022-11-24T18:40:25.718Z,1.22
2022-11-24T18:45:29.398Z,1.21
2022-11-24T18:50:33.563Z,1.16
2022-11-24T18:55:37.080Z,1.06
2022-11-24T19:00:40.491Z,1.06
2022-11-24T19:05:44.110Z,1.07
2022-11-24T19:10:49.674Z,1.09
2022-11-24T19:15:53.190Z,1.15
2022-11-24T19:20:57.830Z,1.27
2022-11-24T19:26:01.654Z,1.31
2022-11-24T19:31:07.933Z,1.30
2022-11-24T19:36:16.677Z,1.38
2022-11-24T19:41:21.927Z,1.25
2022-11-24T19:46:27.855Z,1.20
2022-11-24T19:51:36.530Z,1.21
2022-11-24T19:56:41.592Z,1.32
2022-11-24T20:01:45.256Z,1.43
2022-11-24T20:06:49.136Z,1.48
2022-11-24T20:11:52.647Z,1.58
2022-11-24T20:16:56.233Z,1.51
2022-11-24T20:22:00.499Z,1.45
2022-11-24T20:27:04.120Z,1.44
2022-11-24T20:32:09.045Z,1.44
2022-11-24T20:37:13.914Z,1.46
2022-11-24T20:42:17.429Z,1.53
2022-11-24T20:47:20.943Z,1.42
2022-11-24T20:52:24.460Z,1.14
2022-11-24T20:57:27.871Z,0.94
2022-11-24T21:02:31.476Z,0.91
2022-11-24T21:07:35.372Z,0.91
2022-11-24T21:12:38.930Z,0.94
2022-11-24T21:17:42.344Z,0.93
2022-11-24T21:22:45.860Z,0.88
2022-11-24T21:27:49.373Z,0.76
2022-11-24T21:32:52.786Z,0.78
2022-11-24T21:37:56.615Z,0.82
2022-11-24T21:43:00.123Z,0.95
2022-11-24T21:48:03.644Z,0.97
2022-11-24T21:53:09.719Z,0.77
2022-11-24T21:58:13.232Z,0.72
2022-11-24T22:03:17.690Z,0.74
2022-11-24T22:08:22.104Z,0.82
2022-11-24T22:13:25.623Z,0.82
2022-11-24T22:18:38.284Z,0.82
2022-11-24T22:23:42.541Z,0.91
2022-11-24T22:28:46.614Z,0.91
2022-11-24T22:33:50.742Z,0.94
2022-11-24T22:38:56.116Z,0.95
2022-11-24T22:43:59.924Z,0.98
2022-11-24T22:49:03.458Z,0.96
2022-11-24T22:54:06.954Z,0.86
2022-11-24T22:59:10.474Z,0.80
2022-11-24T23:04:14.570Z,0.73
2022-11-24T23:09:18.115Z,0.77
2022-11-24T23:14:21.634Z,0.76
2022-11-24T23:19:25.044Z,0.71
2022-11-24T23:24:28.561Z,0.64
2022-11-24T23:29:31.974Z,0.61
2022-11-24T23:34:35.677Z,0.63
2022-11-24T23:39:39.414Z,0.54
2022-11-24T23:44:42.928Z,0.50
2022-11-24T23:49:46.446Z,0.43
2022-11-24T23:54:49.959Z,0.38
2022-11-24T23:59:54.090Z,0.30
